Time;durP1;ratioP1;P1;durP2;ratioP2;P2;SDS_P1;SDS_P2;PMS_P1;PMS_P2;Temp;Humidity;BMP_temperature;BMP_pressure;BME280_temperature;BME280_humidity;BME280_pressure;Samples;Min_cycle;Max_cycle;Signal;HPM_P1;HPM_P2
2023/09/08 00:01:31;;;;;;;57.60;22.40;;;;;;;9.27;78.24;99947.69;109160;1257;74271;-23
2023/09/08 00:05:03;;;;;;;33.90;11.70;;;;;;;8.98;78.48;99954.40;102655;1293;601051;-23
2023/09/08 00:07:31;;;;;;;27.20;10.30;;;;;;;8.72;78.88;99960.13;105073;1267;61030;-22
2023/09/08 00:09:59;;;;;;;9.50;4.70;;;;;;;8.51;78.79;99965.85;104812;1271;61218;-23
2023/09/08 00:12:27;;;;;;;12.20;5.10;;;;;;;8.83;78.61;99964.51;104623;1267;72464;-22
2023/09/08 00:14:54;;;;;;;15.90;6.60;;;;;;;9.30;77.00;99960.65;104676;1267;74270;-23
2023/09/08 00:17:22;;;;;;;10.70;4.00;;;;;;;9.31;75.92;99960.91;104765;1267;71416;-23
2023/09/08 00:19:50;;;;;;;6.90;3.50;;;;;;;9.12;76.49;99961.04;102778;1269;2937956;-22
2023/09/08 00:22:18;;;;;;;6.10;2.90;;;;;;;8.88;78.14;99956.95;104927;1264;61096;-23
2023/09/08 00:24:46;;;;;;;4.00;2.80;;;;;;;8.65;79.52;99959.17;104930;1265;70998;-23
2023/09/08 00:27:13;;;;;;;7.50;4.10;;;;;;;8.43;80.22;99963.33;104872;1265;73622;-22
2023/09/08 00:29:41;;;;;;;12.50;4.10;;;;;;;8.26;80.98;99964.45;104817;1269;71408;-22
2023/09/08 00:32:09;;;;;;;27.90;8.70;;;;;;;8.69;80.72;99966.14;104944;1267;60994;-23
2023/09/08 00:34:37;;;;;;;21.80;8.10;;;;;;;9.20;78.78;99960.06;104894;1270;61121;-23
2023/09/08 00:37:07;;;;;;;18.20;6.20;;;;;;;9.18;77.51;99963.45;105237;1263;71745;-23
2023/09/08 00:39:36;;;;;;;17.70;6.20;;;;;;;8.95;76.87;99963.45;105437;1263;74300;-22
2023/09/08 00:42:04;;;;;;;11.10;4.80;;;;;;;8.66;77.36;99964.13;105268;1257;71463;-22
2023/09/08 00:44:32;;;;;;;10.90;4.40;;;;;;;8.37;77.93;99963.48;105253;1259;61186;-23
2023/09/08 00:47:00;;;;;;;9.40;4.30;;;;;;;8.12;78.43;99963.52;105323;1258;61138;-22
2023/09/08 00:49:28;;;;;;;5.90;2.30;;;;;;;7.88;79.52;99963.97;105331;1263;72077;-23
2023/09/08 00:51:56;;;;;;;5.60;2.70;;;;;;;8.25;81.91;99966.08;105435;1257;73051;-22
2023/09/08 00:54:24;;;;;;;8.90;4.30;;;;;;;8.78;81.30;99969.79;105369;1261;72690;-23
2023/09/08 00:56:56;;;;;;;7.60;3.70;;;;;;;8.87;78.49;99972.94;105519;1257;61167;-23
2023/09/08 00:59:24;;;;;;;12.60;5.00;;;;;;;8.65;76.77;99969.17;105359;1263;61032;-23
2023/09/08 01:01:52;;;;;;;9.80;4.00;;;;;;;8.37;76.80;99969.02;105537;1263;71826;-23
2023/09/08 01:12:04;;;;;;;8.10;3.20;;;;;;;7.58;79.77;99962.16;102659;1292;600256;-21
2023/09/08 01:14:33;;;;;;;6.40;3.50;;;;;;;8.19;79.99;99963.66;104662;1270;61114;-23
2023/09/08 01:17:00;;;;;;;10.40;4.30;;;;;;;8.80;78.11;99962.10;104819;1271;61264;-24
2023/09/08 01:19:30;;;;;;;8.10;4.00;;;;;;;8.90;77.54;99962.37;104862;1271;70924;-21
2023/09/08 01:29:02;;;;;;;17.60;7.50;;;;;;;7.99;77.26;99962.88;102666;1292;601058;-21
2023/09/08 01:31:31;;;;;;;12.70;6.00;;;;;;;7.63;77.93;99961.71;104782;1266;61258;-21
2023/09/08 01:34:00;;;;;;;12.90;5.10;;;;;;;7.42;78.86;99960.45;104779;1266;61059;-21
2023/09/08 01:36:28;;;;;;;5.40;2.70;;;;;;;7.83;80.03;99959.56;104807;1266;70364;-22
2023/09/08 01:38:56;;;;;;;5.70;3.50;;;;;;;8.43;80.37;99960.41;105224;1266;73211;-21
2023/09/08 01:47:38;;;;;;;6.10;3.70;;;;;;;7.97;79.11;99961.41;102630;1293;600103;-21
2023/09/08 01:50:06;;;;;;;9.20;3.50;;;;;;;7.68;79.23;99956.29;105051;1267;61206;-21
2023/09/08 01:59:13;;;;;;;20.20;6.70;;;;;;;8.25;79.47;99956.55;102661;1293;599835;-21
2023/09/08 02:05:26;;;;;;;14.30;5.50;;;;;;;8.38;75.77;99960.00;104824;1266;61007;-22
2023/09/08 02:07:55;;;;;;;14.10;5.00;;;;;;;8.07;75.98;99960.19;105071;1269;72362;-23
2023/09/08 02:10:23;;;;;;;11.20;4.80;;;;;;;7.71;75.84;99958.33;104847;1273;72604;-23
2023/09/08 02:20:30;;;;;;;8.20;3.10;;;;;;;6.75;79.32;99951.63;102553;1295;600223;-23
2023/09/08 02:23:04;;;;;;;10.40;4.40;;;;;;;7.35;79.67;99950.10;104788;1270;61156;-23
2023/09/08 02:25:32;;;;;;;22.20;6.90;;;;;;;7.92;78.44;99950.61;104714;1267;61153;-24
2023/09/08 02:28:00;;;;;;;10.60;4.20;;;;;;;7.97;78.06;99953.31;104759;1273;72197;-22
2023/09/08 02:30:29;;;;;;;9.50;4.40;;;;;;;7.83;78.21;99946.80;104779;1271;73237;-22
2023/09/08 02:32:57;;;;;;;15.20;6.10;;;;;;;7.61;77.89;99944.06;102801;1272;3002717;-23
2023/09/08 02:35:25;;;;;;;19.90;8.10;;;;;;;7.31;77.65;99944.09;104903;1264;61184;-23
2023/09/08 02:37:54;;;;;;;55.60;21.00;;;;;;;7.01;78.52;99935.63;105257;1264;61042;-24
2023/09/08 02:40:23;;;;;;;39.70;13.70;;;;;;;6.80;80.69;99940.18;105256;1267;71042;-24
2023/09/08 02:42:51;;;;;;;29.10;11.70;;;;;;;7.16;81.03;99930.86;105208;1264;73069;-24
2023/09/08 02:45:19;;;;;;;19.10;7.30;;;;;;;7.68;79.84;99927.41;105137;1266;72629;-24
2023/09/08 02:47:50;;;;;;;16.00;5.90;;;;;;;7.79;79.48;99925.96;105192;1263;61082;-24
2023/09/08 02:50:18;;;;;;;11.50;5.20;;;;;;;7.65;79.27;99919.94;105090;1263;61134;-24
2023/09/08 02:52:46;;;;;;;13.50;6.00;;;;;;;7.44;79.46;99923.52;105175;1267;73005;-24
2023/09/08 02:55:14;;;;;;;15.60;6.20;;;;;;;7.18;80.04;99923.88;105163;1264;74633;-24
2023/09/08 02:57:42;;;;;;;15.90;7.20;;;;;;;6.93;79.88;99923.98;105199;1267;72643;-23
2023/09/08 03:07:03;;;;;;;10.00;4.50;;;;;;;7.80;78.54;99925.17;102698;1292;600044;-24
2023/09/08 03:09:33;;;;;;;7.00;4.10;;;;;;;7.59;76.73;99922.17;104892;1267;61104;-23
2023/09/08 03:19:40;;;;;;;8.90;3.50;;;;;;;6.47;80.06;99914.24;102581;1292;600135;-22
2023/09/08 03:22:07;;;;;;;4.30;2.00;;;;;;;6.31;80.76;99910.88;104788;1267;61114;-22
2023/09/08 03:24:35;;;;;;;4.50;2.40;;;;;;;6.82;81.40;99905.89;104793;1271;61273;-22
2023/09/08 03:34:47;;;;;;;4.90;2.80;;;;;;;7.10;78.62;99909.95;102612;1292;600119;-23
2023/09/08 03:44:53;;;;;;;3.30;2.10;;;;;;;6.24;79.36;99911.05;102622;1295;600188;-21
2023/09/08 03:47:21;;;;;;;7.60;3.40;;;;;;;6.81;79.66;99909.92;104884;1270;61269;-21
2023/09/08 03:49:49;;;;;;;5.30;3.60;;;;;;;7.45;78.39;99910.66;105665;1254;61078;-22
2023/09/08 03:52:17;;;;;;;7.20;3.40;;;;;;;7.59;77.01;99913.36;105727;1259;70938;-21
2023/09/08 03:54:46;;;;;;;5.80;3.10;;;;;;;7.47;77.08;99910.73;105638;1260;73189;-21
2023/09/08 03:57:13;;;;;;;3.80;2.60;;;;;;;7.26;77.07;99913.91;105691;1258;72654;-23
2023/09/08 04:07:23;;;;;;;6.40;2.30;;;;;;;6.60;78.28;99915.33;102679;1292;600045;-21
2023/09/08 04:09:51;;;;;;;7.20;3.30;;;;;;;7.21;78.71;99914.90;105123;1269;61208;-21
2023/09/08 04:12:19;;;;;;;6.80;2.40;;;;;;;8.02;76.69;99919.14;105432;1260;61115;-21
2023/09/08 04:14:48;;;;;;;11.70;4.40;;;;;;;8.36;75.14;99917.53;105432;1260;72224;-21
2023/09/08 04:17:17;;;;;;;23.50;11.00;;;;;;;8.49;74.54;99920.47;105241;1265;74523;-23
2023/09/08 04:27:24;;;;;;;8.50;4.10;;;;;;;8.53;74.84;99909.47;103604;1283;600161;-21
2023/09/08 04:29:51;;;;;;;8.00;2.80;;;;;;;8.53;75.39;99911.20;104909;1266;61633;-23
2023/09/08 04:32:19;;;;;;;14.30;4.30;;;;;;;9.08;75.75;99901.83;104808;1271;61132;-24
2023/09/08 04:42:50;;;;;;;23.20;11.30;;;;;;;9.84;73.56;99912.03;102482;1294;616737;-22
2023/09/08 04:45:18;;;;;;;21.00;11.10;;;;;;;9.76;73.58;99904.91;105656;1264;61021;-21
2023/09/08 04:47:46;;;;;;;25.80;13.20;;;;;;;9.67;74.20;99909.50;105503;1262;61150;-21
2023/09/08 04:50:15;;;;;;;28.50;14.30;;;;;;;9.65;74.42;99908.52;105581;1258;72083;-22
2023/09/08 04:52:43;;;;;;;28.30;13.90;;;;;;;9.75;74.83;99909.11;105413;1264;74294;-22
2023/09/08 04:55:11;;;;;;;19.40;10.20;;;;;;;9.85;74.95;99907.64;103452;1264;2912786;-22
2023/09/08 04:57:38;;;;;;;19.60;9.80;;;;;;;10.54;74.29;99906.95;105436;1260;61164;-21
2023/09/08 05:00:06;;;;;;;24.90;12.40;;;;;;;11.35;71.89;99899.99;105691;1263;61050;-22
2023/09/08 05:02:34;;;;;;;23.00;12.40;;;;;;;11.73;71.23;99897.49;105607;1263;72217;-22
2023/09/08 05:05:02;;;;;;;27.90;13.70;;;;;;;11.93;70.45;99899.17;105711;1260;74902;-22
2023/09/08 05:07:29;;;;;;;20.20;12.10;;;;;;;12.02;70.12;99898.84;105670;1254;72667;-23
2023/09/08 05:09:56;;;;;;;21.30;12.50;;;;;;;12.13;70.01;99895.63;105690;1260;61177;-22
2023/09/08 05:12:28;;;;;;;21.10;12.70;;;;;;;12.24;69.83;99896.73;105687;1254;61081;-22
2023/09/08 05:14:59;;;;;;;23.40;11.90;;;;;;;12.42;69.81;99896.07;105491;1258;73577;-23
2023/09/08 05:17:26;;;;;;;16.60;9.30;;;;;;;12.60;68.66;99892.79;105669;1258;74279;-23
2023/09/08 05:19:53;;;;;;;17.10;10.20;;;;;;;12.74;68.02;99892.86;105562;1260;72511;-24
2023/09/08 05:22:20;;;;;;;15.60;7.90;;;;;;;12.78;67.77;99888.81;105457;1263;61080;-22
2023/09/08 05:24:49;;;;;;;17.00;8.00;;;;;;;12.81;66.56;99893.84;105422;1256;61133;-22
2023/09/08 05:27:16;;;;;;;16.20;6.90;;;;;;;12.94;67.05;99890.73;105596;1263;72871;-22
2023/09/08 05:29:43;;;;;;;15.80;8.40;;;;;;;13.06;67.04;99893.98;105323;1258;74272;-22
2023/09/08 05:32:10;;;;;;;15.20;6.60;;;;;;;13.15;66.77;99893.98;105368;1263;72523;-23
2023/09/08 05:34:39;;;;;;;20.30;7.10;;;;;;;13.35;66.52;99889.29;105445;1258;61109;-22
2023/09/08 05:37:06;;;;;;;14.20;6.90;;;;;;;13.45;66.12;99882.05;105253;1256;61145;-22
2023/09/08 05:39:33;;;;;;;10.00;6.40;;;;;;;13.62;66.20;99885.30;105664;1257;73611;-21
2023/09/08 05:42:00;;;;;;;14.40;7.70;;;;;;;13.75;66.16;99879.83;105614;1271;74170;-21
2023/09/08 05:44:27;;;;;;;14.90;8.60;;;;;;;13.87;66.29;99882.05;105535;1264;72587;-22
2023/09/08 05:46:54;;;;;;;14.00;7.60;;;;;;;13.94;66.75;99884.61;105625;1260;61078;-22
2023/09/08 05:49:22;;;;;;;17.60;8.20;;;;;;;14.00;65.75;99882.73;105602;1262;61150;-22
2023/09/08 05:51:49;;;;;;;23.20;11.00;;;;;;;14.06;66.68;99880.14;105640;1260;73108;-22
2023/09/08 05:54:17;;;;;;;13.20;7.70;;;;;;;14.02;67.75;99876.93;105569;1264;74370;-22
2023/09/08 05:56:44;;;;;;;19.20;9.30;;;;;;;14.59;67.66;99872.37;105579;1258;72407;-22
2023/09/08 05:59:11;;;;;;;24.10;11.80;;;;;;;15.24;65.15;99869.08;105565;1264;61084;-23
2023/09/08 06:01:39;;;;;;;26.30;12.70;;;;;;;15.22;63.98;99869.31;105326;1267;61115;-24
2023/09/08 06:04:08;;;;;;;29.40;14.20;;;;;;;15.10;64.89;99868.39;105594;1269;72710;-23
2023/09/08 06:06:35;;;;;;;29.10;16.80;;;;;;;15.00;64.89;99867.55;105582;1264;74854;-23
2023/09/08 06:09:03;;;;;;;33.20;17.90;;;;;;;14.92;64.44;99871.55;105602;1263;72765;-23
2023/09/08 06:11:29;;;;;;;30.60;16.40;;;;;;;14.92;63.83;99876.43;105298;1263;61143;-25
2023/09/08 06:13:59;;;;;;;30.90;17.30;;;;;;;14.94;63.02;99874.89;105403;1261;61227;-24
2023/09/08 06:16:27;;;;;;;31.80;16.30;;;;;;;14.94;62.85;99878.89;105452;1257;71770;-23
2023/09/08 06:18:54;;;;;;;33.20;17.30;;;;;;;14.87;62.53;99879.14;105423;1260;74150;-24
2023/09/08 06:21:21;;;;;;;30.90;15.70;;;;;;;14.84;62.42;99878.90;105471;1258;72440;-23
2023/09/08 06:23:49;;;;;;;28.00;14.40;;;;;;;14.84;61.42;99875.20;105439;1258;61047;-23
2023/09/08 06:26:16;;;;;;;22.50;13.30;;;;;;;14.84;61.78;99876.20;105579;1258;61739;-22
2023/09/08 06:28:44;;;;;;;30.70;15.20;;;;;;;14.89;61.20;99877.77;105576;1257;73417;-22
2023/09/08 06:31:11;;;;;;;23.80;13.30;;;;;;;14.98;61.36;99880.63;105461;1257;74768;-22
2023/09/08 06:33:39;;;;;;;28.40;14.00;;;;;;;15.12;60.83;99876.32;105267;1257;73088;-22
2023/09/08 06:36:07;;;;;;;22.00;11.90;;;;;;;15.24;58.86;99879.41;105271;1257;61126;-22
2023/09/08 06:38:34;;;;;;;19.20;9.50;;;;;;;15.35;57.84;99882.16;105157;1257;61151;-24
2023/09/08 06:41:09;;;;;;;21.10;10.20;;;;;;;15.47;56.87;99881.43;105366;1262;73037;-24
2023/09/08 06:43:36;;;;;;;15.60;9.50;;;;;;;15.57;56.47;99883.67;105267;1258;74223;-24
2023/09/08 06:46:08;;;;;;;20.10;9.30;;;;;;;15.68;56.16;99883.82;105523;1262;73395;-23
2023/09/08 06:48:35;;;;;;;14.80;8.60;;;;;;;15.82;56.57;99885.18;105571;1258;61068;-24
2023/09/08 06:51:03;;;;;;;12.80;6.90;;;;;;;15.91;56.58;99885.63;105322;1263;61176;-23
2023/09/08 06:53:30;;;;;;;15.80;6.30;;;;;;;16.05;55.81;99883.33;105393;1260;72884;-23
2023/09/08 06:55:58;;;;;;;12.00;5.20;;;;;;;16.26;56.04;99882.83;105164;1270;74408;-21
2023/09/08 06:58:25;;;;;;;12.10;6.00;;;;;;;16.43;54.24;99878.50;105457;1263;72453;-22
2023/09/08 07:00:54;;;;;;;9.70;5.20;;;;;;;16.58;53.81;99883.90;105532;1262;61185;-22
2023/09/08 07:03:26;;;;;;;9.40;5.10;;;;;;;16.81;53.45;99885.50;105408;1256;61163;-22
2023/09/08 07:05:54;;;;;;;8.10;5.10;;;;;;;17.01;52.57;99883.05;105300;1263;71735;-23
2023/09/08 07:08:22;;;;;;;10.50;5.20;;;;;;;17.19;53.03;99879.66;105580;1263;74409;-22
2023/09/08 07:10:52;;;;;;;9.50;5.10;;;;;;;17.38;53.22;99877.82;105489;1262;73091;-24
2023/09/08 07:13:19;;;;;;;11.70;4.50;;;;;;;17.64;53.18;99875.44;105115;1264;61109;-23
2023/09/08 07:15:46;;;;;;;8.20;4.20;;;;;;;17.92;53.48;99876.06;105379;1257;61106;-23
2023/09/08 07:18:13;;;;;;;7.60;4.00;;;;;;;18.22;51.53;99872.18;105592;1263;73060;-22
2023/09/08 07:20:41;;;;;;;7.60;3.70;;;;;;;18.42;51.03;99871.98;105294;1261;74375;-21
2023/09/08 07:23:08;;;;;;;4.70;2.80;;;;;;;18.57;50.44;99866.23;105428;1263;72723;-23
2023/09/08 07:25:35;;;;;;;5.50;2.60;;;;;;;18.74;49.61;99866.63;105385;1258;61076;-23
2023/09/08 07:28:03;;;;;;;6.20;2.70;;;;;;;18.95;49.04;99860.32;105621;1259;61163;-22
2023/09/08 07:30:32;;;;;;;4.80;1.80;;;;;;;19.10;47.04;99863.13;105667;1261;72959;-22
2023/09/08 07:33:00;;;;;;;4.80;2.00;;;;;;;19.26;47.84;99857.91;105338;1263;74434;-22
2023/09/08 07:35:28;;;;;;;4.40;2.00;;;;;;;19.40;47.38;99859.79;105561;1261;72547;-23
2023/09/08 07:37:55;;;;;;;9.30;2.70;;;;;;;19.50;46.89;99855.08;105313;1258;61137;-23
2023/09/08 07:40:22;;;;;;;5.10;1.90;;;;;;;19.54;45.33;99851.71;105550;1254;61115;-23
2023/09/08 07:42:49;;;;;;;5.40;1.90;;;;;;;19.56;42.72;99841.41;105240;1254;72992;-23
2023/09/08 07:45:17;;;;;;;4.10;1.80;;;;;;;19.60;42.27;99845.40;105590;1254;74799;-24
2023/09/08 07:47:45;;;;;;;3.10;1.90;;;;;;;19.59;40.99;99842.02;105652;1260;72564;-23
2023/09/08 07:50:22;;;;;;;5.10;1.80;;;;;;;19.52;42.04;99843.94;105555;1255;61112;-23
2023/09/08 07:52:50;;;;;;;3.10;1.40;;;;;;;19.53;41.46;99842.98;105317;1264;61106;-22
2023/09/08 07:55:17;;;;;;;4.10;1.50;;;;;;;19.49;40.67;99840.58;105430;1263;72858;-22
2023/09/08 07:57:45;;;;;;;4.60;1.60;;;;;;;19.59;42.71;99839.23;105529;1255;74354;-24
2023/09/08 08:00:13;;;;;;;3.40;1.50;;;;;;;19.70;40.25;99834.14;105338;1260;71234;-22
2023/09/08 08:02:44;;;;;;;2.40;1.60;;;;;;;19.85;42.51;99833.73;105303;1254;61196;-23
2023/09/08 08:05:11;;;;;;;5.40;1.60;;;;;;;20.09;39.71;99830.83;105495;1262;61196;-23
2023/09/08 08:07:39;;;;;;;2.40;1.40;;;;;;;20.10;39.34;99826.70;105658;1254;73172;-21
2023/09/08 08:10:07;;;;;;;3.20;1.50;;;;;;;20.05;38.16;99827.96;105661;1260;74605;-21
2023/09/08 08:12:34;;;;;;;6.00;1.50;;;;;;;20.08;39.01;99825.11;105584;1260;71076;-21
2023/09/08 08:15:01;;;;;;;3.60;1.60;;;;;;;20.23;39.18;99824.56;105652;1254;61051;-21
2023/09/08 08:17:29;;;;;;;2.90;1.30;;;;;;;20.45;38.58;99822.51;105678;1255;61185;-24
2023/09/08 08:19:58;;;;;;;3.40;1.50;;;;;;;20.62;36.74;99819.93;105492;1254;73549;-23
2023/09/08 08:22:25;;;;;;;2.70;1.70;;;;;;;20.86;37.00;99818.19;105591;1260;74074;-23
2023/09/08 08:24:52;;;;;;;3.20;1.70;;;;;;;21.03;36.89;99815.25;105653;1254;71726;-23
2023/09/08 08:27:19;;;;;;;1.80;1.30;;;;;;;21.21;35.67;99813.84;105629;1260;61087;-23
2023/09/08 08:29:46;;;;;;;1.90;1.00;;;;;;;21.39;35.03;99812.02;105654;1259;61059;-23
2023/09/08 08:32:13;;;;;;;2.90;1.10;;;;;;;21.43;34.59;99809.77;105671;1254;72847;-23
2023/09/08 08:34:40;;;;;;;3.20;1.00;;;;;;;21.51;34.06;99809.23;105540;1262;74380;-23
2023/09/08 08:37:07;;;;;;;3.50;1.30;;;;;;;21.62;35.19;99810.80;105606;1260;72676;-23
2023/09/08 08:39:34;;;;;;;6.20;1.40;;;;;;;21.76;34.73;99806.95;105474;1254;61092;-23
2023/09/08 08:42:09;;;;;;;2.40;1.20;;;;;;;21.68;33.35;99801.29;105543;1261;61057;-23
2023/09/08 08:44:39;;;;;;;4.80;1.30;;;;;;;21.65;34.83;99804.26;105594;1254;72265;-23
2023/09/08 08:47:07;;;;;;;3.10;1.00;;;;;;;21.74;34.24;99798.64;105612;1254;74342;-23
2023/09/08 08:49:34;;;;;;;2.10;1.00;;;;;;;21.80;34.28;99802.14;105369;1254;72573;-23
2023/09/08 08:52:06;;;;;;;6.80;3.60;;;;;;;21.81;33.57;99801.73;105554;1259;61089;-23
2023/09/08 08:54:35;;;;;;;11.80;5.00;;;;;;;21.73;33.91;99798.24;105660;1261;61233;-22
2023/09/08 08:57:02;;;;;;;4.90;1.70;;;;;;;21.98;33.99;99797.82;105297;1254;73861;-22
2023/09/08 08:59:30;;;;;;;3.50;1.10;;;;;;;22.03;32.97;99799.16;105436;1255;74287;-23
2023/09/08 09:01:58;;;;;;;2.60;1.30;;;;;;;22.30;33.22;99793.13;105333;1258;72761;-23
2023/09/08 09:04:26;;;;;;;2.10;1.00;;;;;;;22.54;32.99;99792.06;105180;1254;61121;-23
2023/09/08 09:06:53;;;;;;;4.30;1.50;;;;;;;22.73;32.34;99791.06;105572;1260;61109;-22
2023/09/08 09:09:20;;;;;;;4.30;1.20;;;;;;;22.87;32.71;99785.34;105613;1258;73288;-23
2023/09/08 09:11:49;;;;;;;3.00;1.10;;;;;;;22.99;32.12;99783.48;105470;1261;74346;-22
2023/09/08 09:14:20;;;;;;;2.80;1.10;;;;;;;22.97;31.21;99776.98;105497;1258;73980;-23
2023/09/08 09:16:47;;;;;;;3.20;1.00;;;;;;;22.93;30.61;99777.27;105663;1254;61048;-23
2023/09/08 09:19:27;;;;;;;1.40;0.90;;;;;;;22.96;30.80;99773.26;105717;1259;61096;-23
2023/09/08 09:21:55;;;;;;;2.80;1.20;;;;;;;23.44;30.48;99766.52;105326;1263;73873;-23
2023/09/08 09:24:32;;;;;;;2.00;1.10;;;;;;;23.59;30.83;99764.27;105653;1260;74327;-24
2023/09/08 09:27:04;;;;;;;2.50;1.00;;;;;;;23.76;29.96;99760.19;105260;1258;72256;-23
2023/09/08 09:29:33;;;;;;;3.40;2.00;;;;;;;23.45;29.50;99752.51;105248;1257;61068;-23
2023/09/08 09:32:05;;;;;;;4.30;1.70;;;;;;;23.84;30.21;99757.20;105386;1261;61140;-23
2023/09/08 09:34:33;;;;;;;5.50;1.70;;;;;;;24.48;29.47;99753.94;105229;1254;73852;-23
2023/09/08 09:37:01;;;;;;;1.20;0.90;;;;;;;24.85;28.52;99751.36;105515;1254;74010;-23
2023/09/08 09:39:28;;;;;;;3.30;1.10;;;;;;;24.74;27.95;99748.34;105641;1254;72754;-23
2023/09/08 09:41:56;;;;;;;2.40;0.70;;;;;;;25.00;27.40;99750.12;105557;1254;61143;-24
2023/09/08 09:44:24;;;;;;;2.90;1.20;;;;;;;25.25;26.42;99745.68;105294;1263;61211;-23
2023/09/08 09:46:52;;;;;;;1.50;0.70;;;;;;;25.80;26.43;99748.56;105305;1257;72389;-23
2023/09/08 09:49:19;;;;;;;1.80;1.00;;;;;;;26.21;25.62;99744.16;105535;1257;72970;-24
2023/09/08 09:51:47;;;;;;;4.70;1.10;;;;;;;26.01;24.73;99744.29;105510;1258;71422;-23
2023/09/08 09:54:15;;;;;;;2.20;1.00;;;;;;;25.72;24.76;99750.55;105431;1256;61045;-23
2023/09/08 09:56:43;;;;;;;1.60;0.90;;;;;;;25.81;25.52;99744.20;105291;1254;61709;-24
2023/09/08 09:59:13;;;;;;;1.60;0.90;;;;;;;25.67;26.14;99742.02;105497;1260;72291;-23
2023/09/08 10:01:41;;;;;;;2.30;1.10;;;;;;;26.29;26.08;99741.24;105578;1254;74376;-23
2023/09/08 10:04:09;;;;;;;3.50;1.00;;;;;;;26.60;24.79;99737.61;105462;1254;72517;-23
2023/09/08 10:06:37;;;;;;;1.90;0.90;;;;;;;26.83;23.80;99732.39;105576;1254;61158;-23
2023/09/08 10:09:08;;;;;;;4.40;1.20;;;;;;;27.03;24.11;99725.91;105513;1262;61170;-23
2023/09/08 10:11:42;;;;;;;1.30;1.00;;;;;;;26.92;23.79;99725.05;105637;1254;75379;-23
2023/09/08 10:14:11;;;;;;;2.90;1.00;;;;;;;26.75;24.42;99719.33;105552;1264;76226;-23
2023/09/08 10:16:39;;;;;;;5.00;1.00;;;;;;;26.76;24.60;99722.05;105496;1257;72528;-23
2023/09/08 10:19:10;;;;;;;1.70;1.00;;;;;;;26.56;23.96;99719.12;105369;1256;61196;-23
2023/09/08 10:21:40;;;;;;;1.60;0.90;;;;;;;26.83;24.52;99716.69;105509;1263;62007;-23
2023/09/08 10:24:27;;;;;;;2.50;1.30;;;;;;;27.12;24.17;99711.70;105628;1258;72700;-23
2023/09/08 10:27:05;;;;;;;3.10;1.40;;;;;;;26.70;24.50;99711.27;105619;1260;74388;-23
2023/09/08 10:29:33;;;;;;;2.90;1.20;;;;;;;26.23;24.49;99711.11;105288;1257;71582;-23
2023/09/08 10:32:00;;;;;;;5.90;1.20;;;;;;;26.54;24.47;99709.88;105659;1254;61141;-24
2023/09/08 10:34:27;;;;;;;2.60;1.20;;;;;;;26.75;24.75;99707.87;105467;1255;61951;-23
2023/09/08 10:36:55;;;;;;;1.90;1.20;;;;;;;26.79;24.93;99700.29;105494;1254;75762;-23
2023/09/08 10:39:35;;;;;;;3.10;1.30;;;;;;;27.02;24.83;99696.27;105548;1259;74189;-23
2023/09/08 10:42:21;;;;;;;2.10;1.20;;;;;;;27.41;24.76;99689.73;105242;1254;71417;-23
2023/09/08 10:44:51;;;;;;;4.20;1.70;;;;;;;27.58;24.53;99689.26;105652;1254;62097;-23
2023/09/08 10:47:22;;;;;;;1.70;1.10;;;;;;;27.74;24.30;99684.40;105545;1255;61218;-23
2023/09/08 10:49:57;;;;;;;2.30;1.40;;;;;;;27.85;23.85;99677.44;105257;1263;72630;-23
2023/09/08 10:52:27;;;;;;;2.00;1.20;;;;;;;27.83;24.29;99681.04;105650;1254;74322;-22
2023/09/08 10:54:58;;;;;;;2.10;1.20;;;;;;;27.78;23.22;99678.84;105633;1254;72896;-23
2023/09/08 10:57:25;;;;;;;3.70;1.10;;;;;;;27.31;22.91;99677.18;105299;1254;61083;-22
2023/09/08 11:00:00;;;;;;;1.70;0.70;;;;;;;27.07;23.22;99678.55;105582;1259;61051;-22
2023/09/08 11:02:46;;;;;;;4.60;1.40;;;;;;;27.28;24.20;99678.33;105532;1262;72365;-22
2023/09/08 11:05:15;;;;;;;3.50;1.10;;;;;;;27.46;23.87;99677.25;105327;1256;74497;-23
2023/09/08 11:07:43;;;;;;;2.10;1.20;;;;;;;27.33;24.08;99668.79;105408;1254;71546;-22
2023/09/08 11:10:12;;;;;;;2.00;1.30;;;;;;;26.80;25.36;99665.67;105512;1254;61125;-22
2023/09/08 11:12:39;;;;;;;3.40;1.20;;;;;;;26.35;25.75;99665.38;105344;1255;61264;-22
2023/09/08 11:15:08;;;;;;;2.30;1.20;;;;;;;26.18;26.12;99665.77;105669;1254;73677;-22
2023/09/08 11:17:39;;;;;;;2.00;1.00;;;;;;;26.28;26.46;99663.02;105562;1263;74413;-22
2023/09/08 11:20:08;;;;;;;3.50;1.20;;;;;;;26.32;26.37;99662.07;105622;1256;72569;-22
2023/09/08 11:22:40;;;;;;;2.10;0.90;;;;;;;26.67;25.63;99653.93;105557;1257;61048;-22
2023/09/08 11:25:08;;;;;;;2.30;1.00;;;;;;;27.05;25.83;99649.59;105422;1262;61284;-22
2023/09/08 11:27:36;;;;;;;1.80;1.10;;;;;;;27.22;25.36;99649.47;105339;1254;75722;-22
2023/09/08 11:30:05;;;;;;;5.70;1.50;;;;;;;27.30;24.40;99636.18;105642;1254;74316;-22
2023/09/08 11:32:33;;;;;;;3.80;1.20;;;;;;;26.34;25.02;99631.45;105303;1260;72794;-23
2023/09/08 11:35:08;;;;;;;1.80;1.00;;;;;;;26.39;26.26;99630.71;105506;1257;62216;-23
2023/09/08 11:37:38;;;;;;;5.10;1.20;;;;;;;26.20;25.67;99622.41;105597;1258;61119;-22
2023/09/08 11:40:11;;;;;;;1.50;0.90;;;;;;;26.39;25.75;99619.58;105483;1262;74406;-23
2023/09/08 11:42:43;;;;;;;2.30;0.90;;;;;;;26.37;25.32;99622.55;105631;1260;74464;-23
2023/09/08 11:45:14;;;;;;;1.00;0.80;;;;;;;26.35;25.24;99618.20;105264;1263;72108;-23
2023/09/08 11:47:42;;;;;;;3.70;1.30;;;;;;;26.08;24.71;99618.21;105527;1256;61061;-23
2023/09/08 11:50:18;;;;;;;2.50;1.20;;;;;;;26.04;25.44;99613.71;105608;1260;61253;-23
2023/09/08 11:52:49;;;;;;;2.80;1.20;;;;;;;26.15;25.55;99611.91;105330;1257;73956;-23
2023/09/08 11:55:17;;;;;;;2.00;1.10;;;;;;;26.09;25.78;99609.87;105309;1258;75201;-23
2023/09/08 11:57:47;;;;;;;5.60;1.20;;;;;;;26.14;24.72;99608.30;105470;1257;73171;-23
2023/09/08 12:00:17;;;;;;;1.70;1.00;;;;;;;26.31;25.16;99604.14;105530;1257;61163;-22
2023/09/08 12:02:45;;;;;;;2.30;1.20;;;;;;;26.55;25.82;99601.40;105524;1254;61187;-23
2023/09/08 12:05:22;;;;;;;2.30;1.00;;;;;;;26.57;24.39;99597.55;105520;1254;73591;-23
2023/09/08 12:07:58;;;;;;;1.90;1.20;;;;;;;26.43;23.83;99588.77;105323;1263;74384;-23
2023/09/08 12:10:26;;;;;;;3.80;1.30;;;;;;;26.16;24.39;99589.27;105572;1254;74641;-23
2023/09/08 12:12:58;;;;;;;2.40;1.20;;;;;;;25.94;25.03;99588.36;105230;1261;61778;-22
2023/09/08 12:15:41;;;;;;;5.30;1.50;;;;;;;25.89;25.05;99587.02;105468;1262;61137;-22
2023/09/08 12:18:10;;;;;;;4.30;1.20;;;;;;;25.70;25.69;99580.25;105665;1257;74390;-23
2023/09/08 12:20:38;;;;;;;3.50;1.10;;;;;;;25.60;26.21;99580.58;105588;1254;73228;-22
2023/09/08 12:23:14;;;;;;;1.60;1.00;;;;;;;25.50;25.66;99582.35;105292;1254;71348;-22
2023/09/08 12:25:48;;;;;;;1.60;1.20;;;;;;;25.43;25.51;99577.89;105552;1261;61156;-22
2023/09/08 12:28:17;;;;;;;2.10;1.00;;;;;;;25.25;25.59;99578.77;105513;1260;62012;-22
2023/09/08 12:30:44;;;;;;;1.30;1.10;;;;;;;25.45;25.99;99576.20;105301;1263;75355;-22
2023/09/08 12:33:14;;;;;;;3.40;1.00;;;;;;;25.44;25.11;99572.84;105693;1254;74409;-23
2023/09/08 12:35:45;;;;;;;1.50;1.00;;;;;;;25.40;25.28;99568.21;105604;1254;72729;-23
2023/09/08 12:38:12;;;;;;;1.40;0.90;;;;;;;25.40;24.88;99564.85;105628;1254;62209;-23
2023/09/08 12:40:40;;;;;;;9.20;1.40;;;;;;;25.30;25.36;99565.92;105621;1261;61150;-22
2023/09/08 12:43:07;;;;;;;4.70;1.00;;;;;;;25.21;26.01;99563.58;105640;1254;73642;-23
2023/09/08 12:45:56;;;;;;;1.20;0.80;;;;;;;25.27;25.96;99559.45;105473;1254;74631;-22
2023/09/08 12:48:23;;;;;;;2.10;1.10;;;;;;;25.22;26.30;99559.23;105520;1254;72742;-23
2023/09/08 12:50:50;;;;;;;3.30;1.20;;;;;;;25.16;26.37;99556.01;105241;1262;61199;-23
2023/09/08 12:53:21;;;;;;;2.00;1.20;;;;;;;25.16;26.48;99556.67;105639;1255;62811;-22
2023/09/08 12:55:49;;;;;;;1.80;0.90;;;;;;;25.13;26.79;99559.10;105664;1256;75286;-22
2023/09/08 12:58:16;;;;;;;2.50;1.10;;;;;;;25.18;26.68;99549.05;105628;1260;74327;-23
2023/09/08 13:00:44;;;;;;;2.30;1.00;;;;;;;25.23;26.92;99545.82;105550;1254;70959;-23
2023/09/08 13:03:11;;;;;;;1.50;1.10;;;;;;;25.29;26.47;99548.11;105708;1254;62005;-23
2023/09/08 13:05:39;;;;;;;4.00;1.10;;;;;;;25.37;26.74;99541.23;105586;1260;61253;-23